Terminal Aerodrome Forecast
Issued by NWS Boston, MA

Home | Current Version | Previous Version | Text Only | Print | Product List | Glossary On
Versions: 1 2 3 4 5 6 7 8 9 10 11 12 13 14 15 16 17 18 19 20 21 22 23 24 25 26 27 28 29 30 31 32 33 34 35 36 37 38 39 40
000
FTUS41 KBOX 250539
TAFPVD
TAF
KPVD 250539Z 2506/2606 20016G28KT 3SM -DZ BR OVC008 WS020/22040KT
     FM251000 20015G31KT 3SM RA BR OVC008
     FM251200 23009KT 3SM -RA BR OVC015
     FM251500 25014G24KT P6SM BKN025
     FM251700 27015G25KT P6SM SCT250
     FM260200 27009KT P6SM FEW250=

USA.gov is the U.S. government's official web portal to all federal, state and local government web resources and services.